Time;durP1;ratioP1;P1;durP2;ratioP2;P2;SDS_P1;SDS_P2;PMS_P1;PMS_P2;Temp;Humidity;BMP_temperature;BMP_pressure;BME280_temperature;BME280_humidity;BME280_pressure;Samples;Min_cycle;Max_cycle;Signal;HPM_P1;HPM_P2
2022/12/19 00:01:32;;;;;;;18.10;4.20;;;20.50;55.70;;;;;;5042081;28;20186;-66
2022/12/19 00:04:02;;;;;;;26.90;5.17;;;20.40;54.30;;;;;;5052681;28;20587;-66
2022/12/19 00:06:30;;;;;;;20.90;4.53;;;20.00;54.90;;;;;;5054698;28;20215;-68
2022/12/19 00:08:59;;;;;;;29.13;5.83;;;19.60;55.30;;;;;;5053510;28;20187;-67
2022/12/19 00:11:27;;;;;;;21.63;5.73;;;19.30;56.70;;;;;;5049591;28;20265;-65
2022/12/19 00:13:55;;;;;;;19.00;4.53;;;19.40;57.40;;;;;;5051647;28;20184;-67
2022/12/19 00:16:26;;;;;;;28.40;5.53;;;19.60;56.90;;;;;;5051197;28;20315;-68
2022/12/19 00:18:55;;;;;;;17.23;4.23;;;19.60;56.70;;;;;;5052352;28;20184;-66
2022/12/19 00:21:26;;;;;;;22.97;4.83;;;19.50;55.80;;;;;;5038381;28;20184;-65
2022/12/19 00:23:54;;;;;;;24.93;5.80;;;19.50;56.00;;;;;;5053388;28;20194;-66
2022/12/19 00:26:30;;;;;;;17.87;4.23;;;19.60;55.80;;;;;;5047118;28;20279;-66
2022/12/19 00:29:00;;;;;;;23.23;4.67;;;19.70;55.30;;;;;;5039847;28;20211;-67
2022/12/19 00:31:30;;;;;;;17.53;4.07;;;19.70;56.00;;;;;;5049522;28;20213;-68
2022/12/19 00:33:57;;;;;;;26.73;5.03;;;19.60;57.50;;;;;;5052677;28;20172;-68
2022/12/19 00:36:30;;;;;;;23.63;4.93;;;19.30;58.50;;;;;;5052525;28;20211;-67
2022/12/19 00:38:59;;;;;;;25.73;4.57;;;19.30;59.50;;;;;;5051505;28;20662;-66
2022/12/19 00:41:32;;;;;;;23.30;4.83;;;19.50;59.10;;;;;;5042408;28;20187;-67
2022/12/19 00:44:02;;;;;;;22.93;5.53;;;19.20;59.70;;;;;;5053060;28;20199;-65
2022/12/19 00:46:31;;;;;;;21.27;4.50;;;19.20;60.70;;;;;;5051936;28;20184;-67
2022/12/19 00:48:59;;;;;;;25.13;4.63;;;19.20;59.40;;;;;;5052148;28;20224;-66
2022/12/19 00:51:29;;;;;;;24.30;4.93;;;19.40;58.20;;;;;;5052510;28;20186;-67
2022/12/19 00:53:57;;;;;;;18.03;4.23;;;19.80;57.40;;;;;;5052500;28;20184;-68
2022/12/19 00:56:31;;;;;;;26.67;5.33;;;20.00;56.90;;;;;;5052625;28;20303;-68
2022/12/19 00:58:58;;;;;;;19.70;4.03;;;19.90;57.90;;;;;;5039266;28;20227;-66
2022/12/19 01:01:38;;;;;;;17.43;4.60;;;19.80;58.50;;;;;;5052046;28;20646;-67
2022/12/19 01:04:07;;;;;;;21.63;4.97;;;19.50;59.30;;;;;;5051417;28;20230;-66
2022/12/19 01:06:35;;;;;;;30.07;6.10;;;19.50;60.10;;;;;;5052366;28;20791;-65
2022/12/19 01:09:02;;;;;;;28.13;5.37;;;19.30;60.90;;;;;;5052064;28;20192;-67
2022/12/19 01:14:15;;;;;;;21.57;5.53;;;18.90;64.60;;;;;;5032630;28;20559;-66
2022/12/19 01:16:43;;;;;;;27.53;4.77;;;19.10;63.10;;;;;;5045549;28;20223;-69
2022/12/19 01:19:10;;;;;;;25.97;4.90;;;18.90;60.40;;;;;;5048160;28;20210;-67
2022/12/19 01:21:38;;;;;;;30.43;5.40;;;19.10;59.50;;;;;;5044732;28;20183;-67
2022/12/19 01:24:06;;;;;;;24.90;4.90;;;19.40;58.60;;;;;;5041289;28;20191;-67
2022/12/19 01:26:33;;;;;;;16.77;4.83;;;19.50;57.60;;;;;;5042911;28;20180;-69
2022/12/19 01:29:00;;;;;;;19.50;4.90;;;19.50;57.50;;;;;;5049490;28;20207;-68
2022/12/19 01:31:28;;;;;;;20.03;4.80;;;19.60;56.90;;;;;;5052115;28;20172;-67
2022/12/19 01:33:55;;;;;;;21.70;5.10;;;19.90;56.80;;;;;;5050865;28;20175;-67
2022/12/19 01:36:23;;;;;;;28.33;4.83;;;20.30;54.00;;;;;;5050244;28;20222;-67
2022/12/19 01:38:50;;;;;;;18.47;3.97;;;20.60;52.00;;;;;;5050661;28;20294;-67
2022/12/19 01:41:17;;;;;;;24.97;4.47;;;20.80;50.50;;;;;;5050362;28;20179;-67
2022/12/19 01:44:03;;;;;;;20.57;4.50;;;20.80;49.10;;;;;;5050995;28;20249;-67
2022/12/19 01:46:49;;;;;;;16.43;4.33;;;20.90;49.80;;;;;;5049911;28;20689;-67
2022/12/19 01:49:21;;;;;;;22.17;4.63;;;21.30;49.60;;;;;;5050959;28;20227;-70
2022/12/19 01:51:51;;;;;;;22.97;5.13;;;21.60;48.70;;;;;;5052284;28;20171;-66
2022/12/19 01:54:23;;;;;;;14.90;4.20;;;21.50;49.10;;;;;;5048796;28;20179;-66
2022/12/19 01:56:55;;;;;;;18.43;4.13;;;21.20;49.50;;;;;;5051842;28;20688;-67
2022/12/19 01:59:35;;;;;;;19.30;4.10;;;21.00;49.30;;;;;;5051772;28;20515;-66
2022/12/19 02:02:16;;;;;;;16.67;4.07;;;20.70;50.50;;;;;;5051921;28;20266;-70
2022/12/19 02:04:46;;;;;;;17.60;4.50;;;20.50;49.70;;;;;;5051751;28;20183;-66
2022/12/19 02:07:17;;;;;;;20.70;4.83;;;20.10;51.20;;;;;;5051725;28;20191;-70
2022/12/19 02:09:47;;;;;;;15.57;4.67;;;19.70;53.30;;;;;;5051803;28;20537;-67
2022/12/19 02:12:14;;;;;;;22.77;4.80;;;19.40;54.40;;;;;;5044019;28;20207;-68
2022/12/19 02:14:42;;;;;;;25.80;5.13;;;19.50;54.70;;;;;;5038677;28;20176;-67
2022/12/19 02:17:28;;;;;;;27.37;4.70;;;19.40;53.40;;;;;;5055548;28;20663;-67
2022/12/19 02:20:21;;;;;;;23.33;5.63;;;19.30;54.10;;;;;;5055249;28;20180;-67
2022/12/19 02:23:00;;;;;;;25.43;4.53;;;19.50;54.80;;;;;;5054356;28;20203;-66
2022/12/19 02:25:48;;;;;;;17.40;4.63;;;19.90;54.40;;;;;;5055269;28;20540;-68
2022/12/19 02:28:40;;;;;;;19.53;4.53;;;20.30;52.80;;;;;;5055257;28;20188;-66
2022/12/19 02:31:25;;;;;;;19.17;4.70;;;20.60;52.60;;;;;;5055200;28;20215;-67
2022/12/19 02:34:09;;;;;;;21.40;4.50;;;20.80;51.80;;;;;;5055189;28;20511;-68
2022/12/19 02:36:54;;;;;;;18.90;5.23;;;21.20;50.50;;;;;;5055077;28;20222;-65
2022/12/19 02:39:35;;;;;;;25.47;5.40;;;20.90;51.00;;;;;;5043795;28;20216;-67
2022/12/19 02:42:04;;;;;;;19.37;3.87;;;20.80;50.80;;;;;;5039649;28;20189;-66
2022/12/19 02:44:42;;;;;;;18.77;4.03;;;20.90;49.30;;;;;;5055409;28;20694;-66
2022/12/19 02:47:10;;;;;;;14.33;3.47;;;21.60;46.90;;;;;;5054774;28;20176;-67
2022/12/19 02:49:38;;;;;;;21.93;4.33;;;22.00;44.50;;;;;;5054675;28;20249;-68
2022/12/19 02:52:32;;;;;;;14.20;4.03;;;22.50;43.80;;;;;;5054902;28;20182;-67
2022/12/19 02:55:07;;;;;;;13.73;3.77;;;22.50;43.70;;;;;;5046583;28;20322;-67
2022/12/19 02:57:40;;;;;;;23.47;5.13;;;22.50;45.50;;;;;;5054710;28;20202;-66
2022/12/19 03:00:13;;;;;;;18.30;4.33;;;22.80;44.60;;;;;;5054715;28;20191;-67
2022/12/19 03:02:55;;;;;;;17.47;4.50;;;22.50;46.60;;;;;;5035110;28;20173;-67
2022/12/19 03:05:43;;;;;;;24.07;4.40;;;22.70;45.80;;;;;;5049195;28;20183;-68
2022/12/19 03:08:24;;;;;;;17.70;4.57;;;22.80;46.50;;;;;;5052215;28;20546;-68
2022/12/19 03:11:09;;;;;;;15.53;3.77;;;22.50;45.30;;;;;;5049876;28;20168;-66
2022/12/19 03:13:50;;;;;;;17.80;4.40;;;22.50;44.80;;;;;;5067625;28;20175;-68
2022/12/19 03:16:18;;;;;;;13.27;3.30;;;22.80;45.10;;;;;;5053718;28;20203;-68
2022/12/19 03:18:45;;;;;;;15.13;3.90;;;23.10;45.10;;;;;;5054151;28;20630;-65
2022/12/19 03:21:25;;;;;;;19.00;4.43;;;23.60;44.70;;;;;;5052140;28;20180;-69
2022/12/19 03:23:54;;;;;;;17.57;4.00;;;23.40;44.40;;;;;;5052604;28;20218;-68
2022/12/19 03:26:25;;;;;;;15.87;4.03;;;23.50;43.10;;;;;;5054474;28;20172;-67
2022/12/19 03:29:00;;;;;;;20.57;3.70;;;23.60;43.30;;;;;;5047869;28;20285;-66
2022/12/19 03:31:32;;;;;;;19.33;4.50;;;23.50;44.40;;;;;;5058953;28;20187;-66
2022/12/19 03:34:09;;;;;;;24.03;5.03;;;23.10;45.00;;;;;;5053988;28;20172;-66
2022/12/19 03:36:41;;;;;;;19.70;4.73;;;21.90;50.90;;;;;;5054001;28;20263;-67
2022/12/19 03:39:11;;;;;;;23.87;5.03;;;21.20;53.20;;;;;;5040717;28;20184;-70
2022/12/19 03:44:31;;;;;;;17.17;4.40;;;20.60;54.50;;;;;;5054162;28;20756;-69
2022/12/19 03:47:24;;;;;;;19.87;4.77;;;20.90;51.60;;;;;;5052515;28;20635;-66
2022/12/19 03:49:51;;;;;;;14.50;4.00;;;21.20;50.70;;;;;;5027821;28;20833;-66
2022/12/19 03:52:34;;;;;;;20.87;5.20;;;21.70;48.90;;;;;;5049082;28;20180;-67
2022/12/19 03:55:13;;;;;;;17.47;3.83;;;22.10;48.50;;;;;;5051119;28;20675;-69
2022/12/19 03:57:49;;;;;;;16.57;4.03;;;21.80;48.70;;;;;;5053472;28;20182;-67
2022/12/19 04:00:18;;;;;;;24.30;4.53;;;21.60;48.20;;;;;;5053320;28;20539;-69
2022/12/19 04:02:49;;;;;;;14.40;4.10;;;21.30;49.30;;;;;;5053528;28;20172;-70
2022/12/19 04:05:23;;;;;;;17.60;4.33;;;21.20;49.00;;;;;;5053611;28;20585;-66
2022/12/19 04:07:55;;;;;;;20.87;4.30;;;21.00;50.40;;;;;;5052433;28;20642;-66
2022/12/19 04:10:25;;;;;;;16.90;4.17;;;21.30;50.00;;;;;;5036633;28;20540;-66
2022/12/19 04:13:15;;;;;;;19.20;4.23;;;21.80;49.10;;;;;;5051382;28;20623;-66
2022/12/19 04:15:51;;;;;;;19.27;4.23;;;23.10;45.70;;;;;;5048568;28;20269;-66
2022/12/19 04:18:20;;;;;;;20.27;4.83;;;22.50;46.20;;;;;;5053209;28;20176;-66
2022/12/19 04:21:13;;;;;;;19.50;4.47;;;22.00;48.00;;;;;;5053382;28;20194;-67
2022/12/19 04:23:53;;;;;;;18.90;4.47;;;22.20;48.30;;;;;;5050563;28;20172;-68
2022/12/19 04:26:22;;;;;;;16.07;3.97;;;23.00;46.50;;;;;;5033123;28;20213;-67
2022/12/19 04:28:58;;;;;;;15.03;3.77;;;23.20;43.20;;;;;;5038873;28;20267;-67
2022/12/19 04:31:25;;;;;;;11.83;4.13;;;23.40;43.10;;;;;;5048430;28;20191;-69
2022/12/19 04:33:53;;;;;;;16.47;4.10;;;23.80;42.50;;;;;;5051595;28;20191;-74
2022/12/19 04:36:20;;;;;;;17.77;3.90;;;24.30;41.60;;;;;;5046137;28;20216;-68
2022/12/19 04:38:47;;;;;;;12.77;3.90;;;24.70;41.00;;;;;;5047787;28;20195;-67
2022/12/19 04:41:15;;;;;;;14.97;3.43;;;24.30;39.10;;;;;;5050418;28;20765;-66
2022/12/19 04:43:42;;;;;;;16.87;4.10;;;24.10;38.60;;;;;;5047793;28;20265;-68
2022/12/19 04:46:10;;;;;;;17.03;3.73;;;24.30;39.80;;;;;;5039287;28;20202;-67
2022/12/19 04:48:37;;;;;;;18.63;3.67;;;24.20;40.00;;;;;;5043291;28;20298;-67
2022/12/19 04:51:05;;;;;;;14.40;3.57;;;24.30;39.90;;;;;;5044602;28;20216;-70
2022/12/19 04:53:33;;;;;;;14.50;3.47;;;24.30;39.30;;;;;;5038220;28;20191;-68
2022/12/19 04:56:05;;;;;;;18.63;4.17;;;23.30;39.50;;;;;;5048178;28;20215;-67
2022/12/19 04:58:33;;;;;;;13.53;3.57;;;23.30;41.60;;;;;;5049422;28;20207;-73
2022/12/19 05:01:02;;;;;;;14.70;3.83;;;23.10;42.50;;;;;;5049329;28;20184;-68
2022/12/19 05:03:30;;;;;;;17.70;3.50;;;22.40;43.70;;;;;;5053080;28;20516;-72
2022/12/19 05:06:09;;;;;;;14.93;3.27;;;23.30;42.60;;;;;;5052747;28;20184;-69
2022/12/19 05:08:38;;;;;;;15.40;3.63;;;24.30;40.90;;;;;;5052683;28;20180;-72
2022/12/19 05:11:07;;;;;;;18.77;3.70;;;24.30;39.60;;;;;;5053133;28;20262;-71
2022/12/19 05:13:35;;;;;;;13.53;3.80;;;24.70;39.80;;;;;;5052113;28;20262;-70
2022/12/19 05:16:05;;;;;;;22.33;3.90;;;25.00;38.40;;;;;;5052612;28;20219;-71
2022/12/19 05:18:33;;;;;;;19.23;3.70;;;24.50;39.50;;;;;;5052555;28;20188;-73
2022/12/19 05:21:01;;;;;;;14.30;3.30;;;24.50;40.00;;;;;;5052189;28;20569;-68
2022/12/19 05:23:29;;;;;;;17.67;3.93;;;24.90;39.20;;;;;;5052186;28;20172;-75
2022/12/19 05:26:01;;;;;;;20.33;4.60;;;25.30;38.70;;;;;;5052502;28;20258;-67
2022/12/19 05:28:28;;;;;;;18.00;3.97;;;25.10;40.10;;;;;;5052615;28;20539;-68
2022/12/19 05:31:07;;;;;;;12.57;3.57;;;24.60;40.10;;;;;;5052500;28;20214;-66
2022/12/19 05:33:35;;;;;;;13.33;3.47;;;22.70;44.60;;;;;;5052267;28;20262;-67
2022/12/19 05:36:04;;;;;;;15.70;3.40;;;22.50;46.20;;;;;;5040875;28;20674;-66
2022/12/19 05:38:31;;;;;;;20.87;3.90;;;23.70;44.70;;;;;;5049181;28;20263;-67
2022/12/19 05:41:01;;;;;;;16.47;4.00;;;24.30;43.00;;;;;;5049221;28;20179;-68
2022/12/19 05:43:28;;;;;;;17.80;3.50;;;25.30;42.10;;;;;;5044888;28;20606;-70
2022/12/19 05:45:56;;;;;;;23.80;4.53;;;25.50;41.80;;;;;;5035257;28;20523;-68
2022/12/19 05:48:23;;;;;;;20.33;4.27;;;24.40;44.50;;;;;;5044021;28;20234;-67
2022/12/19 05:50:51;;;;;;;20.07;4.27;;;22.80;48.10;;;;;;5054166;28;20234;-71
2022/12/19 05:53:18;;;;;;;19.97;3.70;;;21.60;50.60;;;;;;5048508;28;20819;-67
2022/12/19 05:55:46;;;;;;;16.13;4.40;;;20.70;53.60;;;;;;5049928;28;20204;-69
2022/12/19 05:58:13;;;;;;;17.73;4.20;;;19.90;56.00;;;;;;5041768;28;20206;-70
2022/12/19 06:00:41;;;;;;;24.50;4.60;;;19.80;56.30;;;;;;5040389;28;20647;-71
2022/12/19 06:03:08;;;;;;;31.07;5.40;;;19.80;55.60;;;;;;5041368;28;20692;-70
2022/12/19 06:05:38;;;;;;;28.20;5.33;;;20.20;55.60;;;;;;5053621;28;20176;-67
2022/12/19 06:08:06;;;;;;;21.03;4.90;;;20.50;56.20;;;;;;5040651;28;20274;-66
2022/12/19 06:10:33;;;;;;;16.70;4.13;;;20.30;56.00;;;;;;5055832;28;20168;-70
2022/12/19 06:13:01;;;;;;;14.20;3.37;;;19.80;57.00;;;;;;5053653;28;20176;-67
2022/12/19 06:15:28;;;;;;;24.43;4.90;;;19.80;57.50;;;;;;5041504;28;20661;-68
2022/12/19 06:17:55;;;;;;;19.53;4.33;;;19.70;58.00;;;;;;5045588;28;20234;-68
2022/12/19 06:20:23;;;;;;;34.57;5.97;;;20.50;55.30;;;;;;5044874;28;20176;-68
2022/12/19 06:22:50;;;;;;;23.97;4.30;;;20.80;54.10;;;;;;5048590;28;20211;-69
2022/12/19 06:25:18;;;;;;;22.33;4.43;;;20.30;55.40;;;;;;5054115;28;20657;-66
2022/12/19 06:27:45;;;;;;;26.93;5.37;;;19.80;56.70;;;;;;5052687;28;20226;-65
2022/12/19 06:30:14;;;;;;;24.20;4.63;;;19.60;56.90;;;;;;5055134;28;20179;-71
2022/12/19 06:32:41;;;;;;;20.57;4.37;;;19.30;57.30;;;;;;5049126;28;20191;-69
2022/12/19 06:35:09;;;;;;;20.33;4.77;;;19.10;58.50;;;;;;5036566;28;20192;-68
2022/12/19 06:37:36;;;;;;;25.23;5.03;;;19.10;58.70;;;;;;5052805;28;20693;-67
2022/12/19 06:40:04;;;;;;;21.87;4.20;;;19.20;58.40;;;;;;5053484;28;20203;-67
2022/12/19 06:42:31;;;;;;;23.20;4.67;;;19.30;57.40;;;;;;5053581;28;20168;-66
2022/12/19 06:44:59;;;;;;;20.33;4.17;;;19.60;55.80;;;;;;5050389;28;20267;-67
2022/12/19 06:47:26;;;;;;;16.50;3.60;;;19.50;54.40;;;;;;5053964;28;20239;-67
2022/12/19 06:49:54;;;;;;;21.53;4.07;;;19.50;53.90;;;;;;5054405;28;20196;-66
2022/12/19 06:52:21;;;;;;;20.80;4.10;;;20.30;49.70;;;;;;5055030;28;20172;-67
2022/12/19 06:54:49;;;;;;;17.90;3.83;;;20.90;47.50;;;;;;5051648;28;20254;-66
2022/12/19 06:57:16;;;;;;;14.80;3.30;;;21.80;46.00;;;;;;5052696;28;20674;-68
2022/12/19 06:59:43;;;;;;;14.03;4.07;;;22.70;44.40;;;;;;5054698;28;20183;-69
2022/12/19 07:02:17;;;;;;;8.47;3.30;;;23.20;42.00;;;;;;5052131;28;20283;-71
2022/12/19 07:04:52;;;;;;;11.93;3.10;;;23.40;40.00;;;;;;5043399;28;20180;-67
2022/12/19 07:07:20;;;;;;;13.47;3.57;;;23.30;40.70;;;;;;5053631;28;20182;-67
2022/12/19 07:09:48;;;;;;;13.83;3.67;;;22.80;42.90;;;;;;5051433;28;20245;-69
2022/12/19 07:12:16;;;;;;;15.70;3.60;;;22.10;44.70;;;;;;5053583;28;20238;-71
2022/12/19 07:14:43;;;;;;;16.03;4.27;;;21.80;44.50;;;;;;5067445;28;20180;-67
2022/12/19 07:17:12;;;;;;;16.13;3.70;;;21.50;44.90;;;;;;5051341;28;20180;-67
2022/12/19 07:19:40;;;;;;;15.43;3.23;;;21.00;46.00;;;;;;5049902;28;20676;-68
2022/12/19 07:22:08;;;;;;;11.20;3.40;;;21.00;45.30;;;;;;5053321;28;20521;-67
2022/12/19 07:24:36;;;;;;;17.60;3.70;;;20.90;46.20;;;;;;5054225;28;20677;-68
2022/12/19 07:27:04;;;;;;;21.77;4.90;;;20.70;47.10;;;;;;5036373;28;20694;-67
2022/12/19 07:29:31;;;;;;;23.97;4.40;;;20.60;48.20;;;;;;5054043;28;20595;-67
2022/12/19 07:31:59;;;;;;;16.00;3.77;;;20.50;48.90;;;;;;5048745;28;20183;-68
2022/12/19 07:34:26;;;;;;;21.87;4.20;;;20.40;50.10;;;;;;5036983;28;20192;-66
2022/12/19 07:36:53;;;;;;;19.40;4.37;;;20.30;50.70;;;;;;5051883;28;20219;-67
2022/12/19 07:39:21;;;;;;;15.43;4.10;;;20.20;51.80;;;;;;5053443;28;20179;-67
2022/12/19 07:41:48;;;;;;;20.30;3.97;;;20.30;51.60;;;;;;5052229;28;20232;-66
2022/12/19 07:44:16;;;;;;;20.80;4.63;;;20.20;51.50;;;;;;5037008;28;20223;-67
2022/12/19 07:46:43;;;;;;;21.13;4.82;;;20.20;51.90;;;;;;5050018;28;20417;-66
2022/12/19 07:49:11;;;;;;;20.47;4.70;;;19.70;54.00;;;;;;5053374;28;20323;-67
2022/12/19 07:51:38;;;;;;;17.13;3.97;;;19.40;55.60;;;;;;5053459;28;20186;-67
2022/12/19 07:54:06;;;;;;;23.00;4.20;;;19.00;55.10;;;;;;5047795;28;20183;-67
2022/12/19 07:56:33;;;;;;;18.47;4.20;;;18.90;55.50;;;;;;5048506;28;20299;-66
2022/12/19 07:59:01;;;;;;;18.63;3.53;;;18.90;55.60;;;;;;5047353;28;20173;-69
2022/12/19 08:01:28;;;;;;;13.07;2.97;;;19.10;54.90;;;;;;5047462;28;20191;-67
2022/12/19 08:03:56;;;;;;;18.43;4.13;;;19.20;54.10;;;;;;5053552;28;20172;-67
2022/12/19 08:06:23;;;;;;;21.13;4.73;;;19.20;53.30;;;;;;5053564;28;20183;-68
2022/12/19 08:08:51;;;;;;;16.23;3.57;;;19.30;52.60;;;;;;5053524;28;20649;-67
2022/12/19 08:11:28;;;;;;;17.63;3.70;;;19.00;52.70;;;;;;5043101;28;20190;-73
2022/12/19 08:13:57;;;;;;;21.93;3.83;;;18.90;53.20;;;;;;5052168;28;20184;-72
2022/12/19 08:16:26;;;;;;;23.73;4.97;;;18.80;53.50;;;;;;5052576;28;20543;-67
2022/12/19 08:18:57;;;;;;;13.73;3.13;;;18.80;53.80;;;;;;5047872;28;20183;-66
2022/12/19 08:21:25;;;;;;;22.10;4.13;;;18.80;53.30;;;;;;5053406;28;20179;-67
2022/12/19 08:23:52;;;;;;;18.97;3.37;;;18.80;52.10;;;;;;5052754;28;20187;-67
2022/12/19 08:26:25;;;;;;;17.30;3.60;;;18.80;52.40;;;;;;5053158;28;20178;-66
2022/12/19 08:28:57;;;;;;;17.43;3.97;;;18.80;52.00;;;;;;5053304;28;20241;-67
2022/12/19 08:31:26;;;;;;;16.73;3.17;;;18.70;51.50;;;;;;5050333;28;20270;-65
2022/12/19 08:33:56;;;;;;;14.37;3.63;;;18.70;52.20;;;;;;5052235;28;20168;-67
2022/12/19 08:36:24;;;;;;;17.90;4.53;;;18.60;51.40;;;;;;5046534;28;20236;-71
2022/12/19 08:38:52;;;;;;;14.30;3.53;;;18.50;51.40;;;;;;5052043;28;20642;-68
2022/12/19 08:41:19;;;;;;;17.93;3.43;;;18.50;51.70;;;;;;5051058;28;20249;-66
2022/12/19 08:43:52;;;;;;;12.13;3.67;;;18.30;52.70;;;;;;5052323;28;20234;-68
2022/12/19 08:46:20;;;;;;;13.17;3.40;;;18.30;53.40;;;;;;5049266;28;20176;-66
2022/12/19 08:48:48;;;;;;;14.50;3.37;;;18.30;54.30;;;;;;5052115;28;20247;-66
2022/12/19 08:51:16;;;;;;;14.40;3.67;;;18.20;54.70;;;;;;5052635;28;20187;-66
2022/12/19 08:53:45;;;;;;;17.90;3.87;;;18.00;55.40;;;;;;5051727;28;20211;-65
2022/12/19 08:56:14;;;;;;;16.10;3.90;;;17.90;56.20;;;;;;5052633;28;20573;-65
2022/12/19 08:58:42;;;;;;;17.23;3.80;;;17.80;57.10;;;;;;5052798;28;20176;-67
2022/12/19 09:01:17;;;;;;;27.87;4.17;;;17.80;58.30;;;;;;5051865;28;20183;-71
2022/12/19 09:03:45;;;;;;;24.20;4.50;;;17.70;59.70;;;;;;5052517;28;20178;-66
2022/12/19 09:06:15;;;;;;;31.17;4.87;;;17.70;60.70;;;;;;5051334;28;20187;-67
2022/12/19 09:08:43;;;;;;;26.33;4.93;;;17.60;61.50;;;;;;5040985;28;20233;-68
2022/12/19 09:11:15;;;;;;;22.83;3.80;;;17.50;61.90;;;;;;5052568;28;20184;-70
2022/12/19 09:13:43;;;;;;;21.50;4.10;;;17.50;62.10;;;;;;5052273;28;20183;-69
2022/12/19 09:16:22;;;;;;;22.07;4.97;;;17.50;62.30;;;;;;5052199;28;20302;-72
2022/12/19 09:18:52;;;;;;;23.20;5.37;;;17.50;62.60;;;;;;5047282;28;20187;-75
2022/12/19 09:21:22;;;;;;;24.20;4.73;;;17.40;62.70;;;;;;5046536;28;20225;-67
2022/12/19 09:23:54;;;;;;;26.63;5.20;;;17.30;62.50;;;;;;5050472;28;20231;-66
2022/12/19 09:26:23;;;;;;;23.97;4.53;;;17.40;62.70;;;;;;5052147;28;20181;-67
2022/12/19 09:28:51;;;;;;;21.67;4.53;;;17.30;62.90;;;;;;5050348;28;20324;-69
2022/12/19 09:31:22;;;;;;;19.53;4.13;;;17.30;62.80;;;;;;5051959;28;20210;-66
2022/12/19 09:33:49;;;;;;;15.97;4.20;;;17.30;62.90;;;;;;5051825;28;20515;-65
2022/12/19 09:36:23;;;;;;;17.50;4.20;;;17.20;60.90;;;;;;5051676;28;20225;-65
2022/12/19 09:38:54;;;;;;;20.00;4.00;;;17.20;61.00;;;;;;5038921;28;20694;-67
2022/12/19 09:41:37;;;;;;;20.30;4.63;;;17.30;60.10;;;;;;5049675;28;20195;-65
2022/12/19 09:44:16;;;;;;;14.87;3.70;;;17.30;59.70;;;;;;5041608;28;20270;-66
2022/12/19 09:46:54;;;;;;;22.97;3.93;;;17.20;59.10;;;;;;5051644;28;20189;-65
2022/12/19 09:49:28;;;;;;;15.17;4.13;;;17.10;58.80;;;;;;5049766;28;20332;-66
2022/12/19 09:52:19;;;;;;;21.77;3.87;;;17.00;58.10;;;;;;5052214;28;20183;-65
2022/12/19 09:54:58;;;;;;;17.03;4.13;;;17.10;57.60;;;;;;5049076;28;20225;-67
2022/12/19 09:57:33;;;;;;;15.40;3.77;;;17.10;57.30;;;;;;5047037;28;20191;-66
2022/12/19 10:00:06;;;;;;;17.57;3.70;;;17.00;57.20;;;;;;5040354;28;20210;-72
2022/12/19 10:02:40;;;;;;;15.63;3.67;;;17.10;57.50;;;;;;5052273;28;20303;-69
2022/12/19 10:05:45;;;;;;;16.30;3.60;;;17.10;57.80;;;;;;5052115;28;20463;-72
2022/12/19 10:08:18;;;;;;;15.97;4.20;;;17.10;58.00;;;;;;5047177;28;20273;-71
2022/12/19 10:10:56;;;;;;;15.13;3.20;;;17.10;57.60;;;;;;5049362;28;20584;-66
2022/12/19 10:13:52;;;;;;;17.97;3.80;;;17.00;57.60;;;;;;5049224;28;20203;-67
2022/12/19 10:16:58;;;;;;;19.13;3.93;;;17.00;58.20;;;;;;5045310;28;20243;-66
2022/12/19 10:19:55;;;;;;;11.73;3.50;;;17.00;58.80;;;;;;5054828;28;20182;-65
2022/12/19 10:22:37;;;;;;;17.73;3.70;;;17.00;59.40;;;;;;5049158;28;20236;-66
2022/12/19 10:25:23;;;;;;;12.13;3.57;;;17.10;60.30;;;;;;5050331;28;20269;-66
2022/12/19 10:27:58;;;;;;;16.23;3.10;;;17.10;60.60;;;;;;5051655;28;20552;-66
2022/12/19 10:30:28;;;;;;;18.03;3.87;;;17.20;60.60;;;;;;5049971;28;20316;-67
2022/12/19 10:33:11;;;;;;;23.03;3.90;;;17.20;60.90;;;;;;5054469;28;20195;-65
2022/12/19 10:35:43;;;;;;;16.17;4.27;;;17.30;60.90;;;;;;5049530;28;20566;-66
2022/12/19 10:38:28;;;;;;;14.30;3.90;;;17.30;60.90;;;;;;5048951;28;20207;-66
2022/12/19 10:41:18;;;;;;;20.60;4.33;;;17.30;61.10;;;;;;5051121;28;20183;-71
2022/12/19 10:44:04;;;;;;;20.97;4.17;;;17.30;60.20;;;;;;5052068;28;20187;-66
2022/12/19 10:46:35;;;;;;;20.97;3.87;;;17.20;60.30;;;;;;5051807;28;20660;-65
2022/12/19 10:49:13;;;;;;;19.63;4.00;;;17.10;59.90;;;;;;5054542;28;20720;-67
2022/12/19 10:51:42;;;;;;;20.47;3.90;;;17.10;59.70;;;;;;5055645;28;20624;-67
2022/12/19 10:54:09;;;;;;;19.20;3.30;;;17.00;59.20;;;;;;5054271;28;20187;-65
2022/12/19 10:56:37;;;;;;;13.70;3.17;;;17.00;57.70;;;;;;5054441;28;20365;-65
2022/12/19 10:59:19;;;;;;;19.40;3.73;;;17.00;57.30;;;;;;5054507;28;20211;-70
2022/12/19 11:01:47;;;;;;;14.83;2.87;;;16.90;56.30;;;;;;5054296;28;20657;-65
2022/12/19 11:04:35;;;;;;;14.20;2.90;;;17.00;56.10;;;;;;5053375;28;20555;-65
2022/12/19 11:07:17;;;;;;;16.00;3.07;;;16.90;55.70;;;;;;5051689;28;20191;-66
2022/12/19 11:09:45;;;;;;;16.00;3.03;;;16.90;56.30;;;;;;5050117;28;20186;-65
2022/12/19 11:12:15;;;;;;;10.50;3.10;;;16.90;56.50;;;;;;5040916;28;20190;-66
2022/12/19 11:15:13;;;;;;;15.93;3.57;;;16.80;56.30;;;;;;5054024;28;20187;-68
2022/12/19 11:17:41;;;;;;;11.97;2.93;;;16.80;56.80;;;;;;5042652;28;20286;-67
2022/12/19 11:20:34;;;;;;;20.57;3.83;;;16.80;57.10;;;;;;5054436;28;20176;-67
2022/12/19 11:23:02;;;;;;;12.83;3.13;;;16.70;57.10;;;;;;5053334;28;20194;-67
2022/12/19 11:25:42;;;;;;;28.23;3.93;;;16.80;57.40;;;;;;5055767;28;20655;-66
2022/12/19 11:28:21;;;;;;;18.63;3.83;;;16.70;57.40;;;;;;5053992;28;20186;-65
2022/12/19 11:31:15;;;;;;;16.13;3.43;;;16.80;57.60;;;;;;5051569;28;20178;-65
2022/12/19 11:33:46;;;;;;;12.93;2.83;;;16.70;57.80;;;;;;5054311;28;20186;-65
2022/12/19 11:36:51;;;;;;;19.30;4.17;;;16.70;57.70;;;;;;5054109;28;20578;-66
2022/12/19 11:39:56;;;;;;;14.93;3.27;;;16.80;58.10;;;;;;5053378;28;20187;-65
2022/12/19 11:42:34;;;;;;;14.10;3.57;;;16.70;58.10;;;;;;5021967;28;20180;-66
2022/12/19 11:45:13;;;;;;;18.20;3.03;;;16.80;58.60;;;;;;5029870;28;20191;-68
2022/12/19 11:47:55;;;;;;;23.73;3.87;;;16.70;58.90;;;;;;5032958;28;20203;-66
2022/12/19 11:50:35;;;;;;;21.27;3.63;;;16.70;59.10;;;;;;5053801;28;20198;-65
2022/12/19 11:53:31;;;;;;;20.93;3.73;;;16.70;59.60;;;;;;5043864;28;20288;-65
2022/12/19 11:56:14;;;;;;;19.27;3.73;;;16.70;59.90;;;;;;5052713;28;20225;-67
2022/12/19 11:58:45;;;;;;;11.03;2.80;;;16.70;60.10;;;;;;5045134;28;20179;-68
2022/12/19 12:01:31;;;;;;;16.57;3.23;;;16.60;59.40;;;;;;5053326;28;20298;-70
2022/12/19 12:04:38;;;;;;;13.20;3.30;;;16.50;59.30;;;;;;5053070;28;20195;-71
2022/12/19 12:07:06;;;;;;;17.50;3.83;;;16.50;58.80;;;;;;5049300;28;20221;-71
2022/12/19 12:09:39;;;;;;;15.73;3.43;;;16.40;58.90;;;;;;5049920;28;20194;-72
2022/12/19 12:12:18;;;;;;;18.87;3.87;;;16.40;58.70;;;;;;5053369;28;20183;-71
2022/12/19 12:15:06;;;;;;;19.40;3.60;;;16.40;58.00;;;;;;5053558;28;20218;-66
2022/12/19 12:17:51;;;;;;;14.93;3.60;;;16.40;57.90;;;;;;5053976;28;20191;-68
2022/12/19 12:20:19;;;;;;;17.40;3.47;;;16.40;58.10;;;;;;5053073;28;20601;-71
2022/12/19 12:23:02;;;;;;;16.50;3.37;;;16.40;58.40;;;;;;5053579;28;20176;-70
2022/12/19 12:25:54;;;;;;;16.37;3.90;;;16.40;58.80;;;;;;5033340;28;20638;-69
2022/12/19 12:28:43;;;;;;;19.13;3.97;;;16.50;59.10;;;;;;5041140;28;20235;-68
2022/12/19 12:31:19;;;;;;;12.37;2.93;;;16.50;59.80;;;;;;5033093;28;20179;-71
2022/12/19 12:34:16;;;;;;;13.97;3.00;;;16.50;59.40;;;;;;5041069;28;20188;-67
2022/12/19 12:36:55;;;;;;;17.53;3.70;;;16.40;59.80;;;;;;5053076;28;20218;-68
2022/12/19 12:39:50;;;;;;;12.27;3.00;;;16.40;60.20;;;;;;5052824;28;20647;-67
2022/12/19 12:43:14;;;;;;;18.73;3.20;;;16.40;60.30;;;;;;5053042;28;20184;-66
2022/12/19 12:45:46;;;;;;;16.03;3.47;;;16.40;60.60;;;;;;5030993;28;20179;-69
2022/12/19 12:48:51;;;;;;;20.33;4.27;;;16.50;60.50;;;;;;5030201;28;20234;-68
2022/12/19 12:51:21;;;;;;;16.57;3.13;;;16.50;60.40;;;;;;5048895;28;20210;-67
2022/12/19 12:53:50;;;;;;;18.10;3.60;;;16.60;60.20;;;;;;5052977;28;20174;-68
2022/12/19 12:56:18;;;;;;;18.43;3.30;;;16.60;60.10;;;;;;5040878;28;20216;-67
2022/12/19 12:58:50;;;;;;;15.17;3.47;;;16.60;59.80;;;;;;5052966;28;20210;-67
2022/12/19 13:01:33;;;;;;;16.53;3.13;;;16.70;60.00;;;;;;5052615;28;20678;-67
2022/12/19 13:04:17;;;;;;;16.87;3.73;;;16.70;60.00;;;;;;5049507;28;20508;-67
2022/12/19 13:06:51;;;;;;;16.23;4.20;;;16.70;60.20;;;;;;5052664;28;20736;-68
2022/12/19 13:09:28;;;;;;;17.23;3.53;;;16.70;60.90;;;;;;5053164;28;20698;-68
2022/12/19 13:15:27;;;;;;;14.07;3.10;;;16.60;62.20;;;;;;5051463;28;20217;-67
2022/12/19 13:17:55;;;;;;;12.97;3.33;;;16.50;62.20;;;;;;5046248;28;20240;-66